Time;durP1;ratioP1;P1;durP2;ratioP2;P2;SDS_P1;SDS_P2;PMS_P1;PMS_P2;Temp;Humidity;BMP_temperature;BMP_pressure;BME280_temperature;BME280_humidity;BME280_pressure;Samples;Min_cycle;Max_cycle;Signal;HPM_P1;HPM_P2
2022/10/20 00:01:06;;;;;;;0.20;0.00;;;20.10;99.90;;;;;;26405246;22;20372;-83
2022/10/20 00:11:14;;;;;;;0.20;0.10;;;20.20;99.90;;;;;;26433199;22;20370;-84
2022/10/20 00:21:20;;;;;;;0.20;0.00;;;20.20;99.90;;;;;;26432005;22;20388;-83
2022/10/20 00:31:26;;;;;;;0.20;0.00;;;20.20;99.90;;;;;;26401318;22;20358;-81
2022/10/20 00:41:30;;;;;;;0.20;0.00;;;20.20;99.90;;;;;;26429776;22;20373;-84
2022/10/20 00:51:36;;;;;;;0.20;0.00;;;20.40;99.90;;;;;;26428719;22;20364;-83
2022/10/20 01:01:41;;;;;;;0.20;0.00;;;20.50;99.90;;;;;;26401946;22;20373;-83
2022/10/20 01:11:55;;;;;;;0.20;0.00;;;20.40;99.90;;;;;;26426351;22;20362;-83
2022/10/20 01:22:21;;;;;;;0.20;0.00;;;20.40;99.90;;;;;;26427273;22;20416;-83
2022/10/20 01:32:37;;;;;;;0.20;0.00;;;20.40;99.90;;;;;;26400391;22;20350;-80
2022/10/20 01:42:44;;;;;;;0.20;0.00;;;20.30;99.90;;;;;;26425354;22;20372;-80
2022/10/20 01:52:49;;;;;;;0.20;0.00;;;20.40;99.90;;;;;;26399479;22;20405;-81
2022/10/20 02:03:18;;;;;;;0.20;0.00;;;20.30;99.90;;;;;;26425140;22;20366;-79
2022/10/20 02:13:24;;;;;;;0.20;0.00;;;20.10;99.90;;;;;;26426056;22;20357;-79
2022/10/20 02:23:30;;;;;;;0.20;0.00;;;20.10;99.90;;;;;;26394729;22;20369;-79
2022/10/20 02:33:43;;;;;;;0.20;0.00;;;19.90;99.90;;;;;;26428638;22;20361;-78
2022/10/20 02:43:47;;;;;;;0.20;0.00;;;19.80;99.90;;;;;;26433270;22;20366;-78
2022/10/20 02:53:53;;;;;;;0.20;0.05;;;19.70;99.90;;;;;;26431672;22;20415;-79
2022/10/20 03:03:58;;;;;;;0.20;0.00;;;19.60;99.90;;;;;;26432603;22;20429;-80
2022/10/20 03:14:03;;;;;;;0.20;0.00;;;19.50;99.90;;;;;;26430572;22;20369;-80
2022/10/20 03:24:07;;;;;;;0.20;0.00;;;19.50;99.90;;;;;;26432307;22;20375;-79
2022/10/20 03:34:12;;;;;;;0.20;0.00;;;19.40;99.90;;;;;;26430922;22;20361;-79
2022/10/20 03:44:16;;;;;;;0.20;0.00;;;19.50;99.90;;;;;;26404444;22;20369;-80
2022/10/20 03:54:21;;;;;;;0.20;0.00;;;19.60;99.90;;;;;;26429340;22;20354;-81
2022/10/20 04:04:25;;;;;;;0.20;0.00;;;19.60;99.90;;;;;;26403580;22;20404;-84
2022/10/20 04:14:31;;;;;;;0.20;0.00;;;19.70;99.90;;;;;;26403691;22;20357;-84
2022/10/20 04:24:34;;;;;;;0.20;0.00;;;20.10;99.90;;;;;;26402023;22;20393;-82
2022/10/20 04:34:40;;;;;;;0.20;0.00;;;19.80;99.90;;;;;;26401900;22;20358;-82
2022/10/20 04:44:43;;;;;;;0.20;0.00;;;19.90;99.90;;;;;;26427241;22;20396;-79
2022/10/20 04:54:49;;;;;;;0.20;0.00;;;19.70;99.90;;;;;;26424907;22;20390;-79
2022/10/20 05:04:53;;;;;;;0.20;0.00;;;19.70;99.90;;;;;;26423774;22;20365;-80
2022/10/20 05:14:58;;;;;;;0.20;0.00;;;19.60;99.90;;;;;;26371919;22;20368;-82
2022/10/20 05:25:02;;;;;;;0.20;0.00;;;19.40;99.90;;;;;;26425641;22;20365;-78
2022/10/20 05:35:28;;;;;;;0.20;0.00;;;19.40;99.90;;;;;;26391812;22;20371;-77
2022/10/20 05:45:32;;;;;;;0.20;0.00;;;19.40;99.90;;;;;;26422037;22;20364;-80
2022/10/20 05:55:37;;;;;;;0.20;0.00;;;19.40;99.90;;;;;;26415369;22;20366;-78
2022/10/20 06:05:41;;;;;;;0.20;0.00;;;19.50;99.90;;;;;;26389806;22;20364;-78
2022/10/20 06:15:48;;;;;;;0.20;0.00;;;19.50;99.90;;;;;;26430641;22;20357;-76
2022/10/20 06:25:51;;;;;;;0.20;0.00;;;19.70;99.90;;;;;;26403408;22;20380;-79
2022/10/20 06:36:00;;;;;;;0.20;0.00;;;19.60;99.90;;;;;;26430248;22;20361;-81
2022/10/20 06:46:06;;;;;;;0.20;0.00;;;19.50;99.90;;;;;;26401315;22;20373;-76
2022/10/20 06:56:14;;;;;;;0.20;0.00;;;19.70;99.90;;;;;;26401052;22;20354;-81
2022/10/20 07:06:21;;;;;;;0.20;0.00;;;20.10;99.90;;;;;;26399378;22;20370;-81
2022/10/20 07:16:27;;;;;;;0.20;0.00;;;20.30;99.90;;;;;;26398238;22;20358;-81
2022/10/20 07:26:33;;;;;;;0.20;0.00;;;20.40;99.90;;;;;;26398470;22;20369;-80
2022/10/20 07:36:40;;;;;;;0.20;0.00;;;20.80;99.90;;;;;;26430290;22;20357;-86
2022/10/20 07:46:44;;;;;;;0.20;0.00;;;20.90;99.90;;;;;;26405941;22;20379;-77
2022/10/20 07:56:49;;;;;;;0.20;0.00;;;21.60;99.90;;;;;;26402084;22;20342;-83
2022/10/20 08:06:53;;;;;;;0.20;0.00;;;22.30;99.90;;;;;;26429468;22;20376;-85
2022/10/20 08:16:58;;;;;;;0.20;0.00;;;22.60;99.90;;;;;;26403249;22;20378;-83
2022/10/20 08:27:02;;;;;;;0.20;0.00;;;23.00;99.90;;;;;;26430327;22;20425;-85
2022/10/20 08:37:08;;;;;;;0.20;0.00;;;23.50;99.90;;;;;;26429864;22;20364;-82
2022/10/20 08:47:23;;;;;;;0.20;0.00;;;23.90;99.90;;;;;;26400567;22;20365;-81
2022/10/20 08:57:35;;;;;;;0.20;0.00;;;23.90;99.90;;;;;;26398639;22;20360;-84
2022/10/20 09:07:40;;;;;;;0.20;0.00;;;23.90;99.90;;;;;;26426417;22;20358;-81
2022/10/20 09:17:48;;;;;;;0.20;0.00;;;23.80;99.90;;;;;;26419760;22;20353;-79
2022/10/20 09:27:53;;;;;;;0.20;0.00;;;23.80;99.90;;;;;;26394725;22;20373;-73
2022/10/20 09:38:03;;;;;;;0.20;0.00;;;24.00;99.90;;;;;;26394932;22;20368;-79
2022/10/20 09:48:20;;;;;;;0.20;0.00;;;24.30;99.90;;;;;;26395879;22;20369;-78
2022/10/20 09:58:29;;;;;;;0.20;0.00;;;24.90;99.90;;;;;;26424297;22;20360;-81
2022/10/20 10:08:43;;;;;;;0.20;0.00;;;25.10;99.90;;;;;;26422773;22;20362;-79
2022/10/20 10:18:58;;;;;;;0.20;0.00;;;25.10;99.90;;;;;;26421437;22;20389;-78
2022/10/20 10:29:02;;;;;;;0.20;0.00;;;25.40;99.90;;;;;;26422717;22;20500;-80
2022/10/20 10:39:13;;;;;;;0.20;0.00;;;25.40;99.90;;;;;;26421593;22;20361;-77
2022/10/20 10:49:47;;;;;;;0.20;0.00;;;25.50;99.90;;;;;;26421126;22;20357;-81
2022/10/20 10:59:53;;;;;;;0.20;0.00;;;25.20;99.90;;;;;;26376639;22;20376;-78
2022/10/20 11:10:09;;;;;;;0.20;0.00;;;25.80;99.90;;;;;;26400563;22;22780;-78
2022/10/20 11:20:23;;;;;;;0.20;0.00;;;26.00;99.90;;;;;;26399488;22;20373;-78
2022/10/20 11:30:27;;;;;;;0.20;0.00;;;25.80;99.90;;;;;;26401127;22;20424;-77
2022/10/20 11:40:38;;;;;;;0.20;0.00;;;25.30;99.90;;;;;;26427770;22;20372;-79
2022/10/20 11:50:51;;;;;;;0.20;0.00;;;25.30;99.90;;;;;;26428188;22;20353;-79
2022/10/20 12:01:06;;;;;;;0.20;0.00;;;26.00;99.90;;;;;;26427404;22;20365;-78
2022/10/20 12:11:17;;;;;;;0.20;0.00;;;25.70;99.90;;;;;;26426585;22;20433;-81
2022/10/20 12:21:55;;;;;;;0.20;0.00;;;25.20;99.90;;;;;;26425641;22;20365;-77
2022/10/20 12:32:43;;;;;;;0.20;0.00;;;25.60;99.90;;;;;;26398661;22;20369;-81
2022/10/20 12:42:52;;;;;;;0.20;0.00;;;25.50;99.90;;;;;;26352202;22;20437;-75
2022/10/20 12:52:57;;;;;;;0.20;0.00;;;25.20;99.90;;;;;;26420660;22;20362;-77
2022/10/20 13:03:23;;;;;;;0.20;0.00;;;25.20;99.90;;;;;;26394076;22;20365;-75
2022/10/20 13:13:51;;;;;;;0.20;0.00;;;25.00;99.90;;;;;;26419959;22;20358;-80
2022/10/20 13:24:12;;;;;;;0.20;0.00;;;25.00;99.90;;;;;;26420961;22;20362;-77
2022/10/20 13:34:23;;;;;;;0.20;0.00;;;24.90;99.90;;;;;;26418399;22;20438;-78
2022/10/20 13:44:39;;;;;;;0.20;0.00;;;25.00;99.90;;;;;;26416884;22;20385;-72
2022/10/20 13:54:47;;;;;;;0.20;0.00;;;25.00;99.90;;;;;;26420114;22;20356;-77
2022/10/20 14:05:02;;;;;;;0.20;0.00;;;25.00;99.90;;;;;;26422993;22;20407;-78
2022/10/20 14:15:09;;;;;;;0.20;0.00;;;24.90;99.90;;;;;;26423056;22;20357;-75
2022/10/20 14:25:13;;;;;;;0.20;0.00;;;25.60;99.90;;;;;;26391853;22;20376;-77
2022/10/20 14:35:27;;;;;;;0.20;0.00;;;25.50;99.90;;;;;;26430082;22;20361;-76
2022/10/20 14:45:31;;;;;;;0.20;0.00;;;25.20;99.90;;;;;;26427626;22;20393;-80
2022/10/20 14:55:41;;;;;;;0.20;0.00;;;25.20;99.90;;;;;;26425908;22;20364;-76
2022/10/20 15:05:47;;;;;;;0.20;0.00;;;25.00;99.90;;;;;;26397897;22;20381;-79
2022/10/20 15:15:52;;;;;;;0.20;0.00;;;25.00;99.90;;;;;;26424579;22;20361;-76
2022/10/20 15:26:00;;;;;;;0.20;0.00;;;24.90;99.90;;;;;;26397871;22;20370;-78
2022/10/20 15:36:12;;;;;;;0.20;0.00;;;25.00;99.90;;;;;;26396794;22;20429;-75
2022/10/20 15:46:17;;;;;;;0.20;0.10;;;24.80;99.90;;;;;;26424658;22;20353;-77
2022/10/20 15:56:22;;;;;;;0.20;0.00;;;24.70;99.90;;;;;;26425650;22;20376;-78
2022/10/20 16:06:26;;;;;;;0.20;0.00;;;24.40;99.90;;;;;;26398491;22;20373;-76
2022/10/20 16:16:32;;;;;;;0.20;0.00;;;24.30;99.90;;;;;;26395852;22;20369;-76
2022/10/20 16:26:35;;;;;;;0.20;0.00;;;24.20;99.90;;;;;;26422011;22;20381;-77
2022/10/20 16:36:41;;;;;;;0.20;0.00;;;24.10;99.90;;;;;;26422106;22;20369;-76
2022/10/20 16:46:44;;;;;;;0.20;0.00;;;24.00;99.90;;;;;;26421282;22;20480;-83
2022/10/20 16:56:50;;;;;;;0.20;0.00;;;24.00;99.90;;;;;;26392769;22;20418;-78
2022/10/20 17:06:53;;;;;;;0.20;0.00;;;24.00;99.90;;;;;;26423375;22;20362;-76
2022/10/20 17:16:59;;;;;;;31.20;28.60;;;23.70;99.90;;;;;;26421199;22;20369;-79
2022/10/20 17:27:03;;;;;;;0.20;0.00;;;23.70;99.90;;;;;;26394971;22;20362;-76
2022/10/20 17:37:08;;;;;;;0.20;0.00;;;23.70;99.90;;;;;;26420181;22;20362;-79
2022/10/20 17:47:12;;;;;;;0.20;0.20;;;23.50;99.90;;;;;;26421490;22;20365;-78
2022/10/20 17:57:17;;;;;;;0.20;0.00;;;23.40;99.90;;;;;;26419682;22;20364;-79
2022/10/20 18:07:21;;;;;;;0.20;0.00;;;23.20;99.90;;;;;;26420635;22;20344;-76
2022/10/20 18:17:26;;;;;;;0.20;0.00;;;23.00;99.90;;;;;;26419211;22;20365;-79
2022/10/20 18:27:30;;;;;;;0.20;0.00;;;23.20;99.90;;;;;;26420733;22;20349;-78
2022/10/20 18:37:35;;;;;;;0.20;0.00;;;23.00;99.90;;;;;;26420439;22;20354;-77
2022/10/20 18:47:40;;;;;;;0.20;0.00;;;22.90;99.90;;;;;;26394870;22;20378;-79
2022/10/20 18:57:45;;;;;;;0.20;0.00;;;22.90;99.90;;;;;;26390607;22;20364;-75
2022/10/20 19:07:49;;;;;;;0.20;0.00;;;22.90;99.90;;;;;;26391441;22;20369;-76
2022/10/20 19:17:54;;;;;;;0.20;0.00;;;22.80;99.90;;;;;;26397139;22;20353;-76
2022/10/20 19:28:04;;;;;;;0.20;0.00;;;22.80;99.90;;;;;;26394860;22;20487;-77
2022/10/20 19:38:09;;;;;;;0.20;0.00;;;22.70;99.90;;;;;;26395730;22;20407;-77
2022/10/20 19:48:13;;;;;;;0.20;0.00;;;22.90;99.90;;;;;;26395097;22;20376;-79
2022/10/20 19:58:19;;;;;;;0.20;0.00;;;22.80;99.90;;;;;;26427358;22;20349;-79
2022/10/20 20:08:23;;;;;;;0.20;0.00;;;23.00;99.90;;;;;;26401219;22;20365;-78
2022/10/20 20:18:28;;;;;;;0.20;0.10;;;22.90;99.90;;;;;;26428876;22;20356;-77
2022/10/20 20:28:32;;;;;;;0.20;0.00;;;22.80;99.90;;;;;;26427301;22;20372;-78
2022/10/20 20:38:40;;;;;;;0.20;0.00;;;22.80;99.90;;;;;;26426512;22;20376;-76
2022/10/20 20:48:44;;;;;;;0.20;0.10;;;22.90;99.90;;;;;;26428527;22;20369;-78
2022/10/20 20:58:49;;;;;;;0.20;0.00;;;22.80;99.90;;;;;;26397045;22;20361;-81
2022/10/20 21:08:57;;;;;;;0.20;0.00;;;22.80;99.90;;;;;;26395980;22;20432;-78
2022/10/20 21:19:06;;;;;;;0.20;0.00;;;22.70;99.90;;;;;;26423919;22;20358;-78
2022/10/20 21:29:11;;;;;;;0.20;0.00;;;22.40;99.90;;;;;;26425975;22;20422;-76
2022/10/20 21:39:16;;;;;;;0.20;0.00;;;22.10;99.90;;;;;;26397765;22;20369;-82
2022/10/20 21:49:23;;;;;;;0.20;0.00;;;22.00;99.90;;;;;;26375028;22;20434;-81
2022/10/20 21:59:30;;;;;;;0.20;0.00;;;21.80;99.90;;;;;;26426829;22;20365;-80
2022/10/20 22:09:34;;;;;;;0.20;0.00;;;21.60;99.90;;;;;;26425402;22;20373;-83
2022/10/20 22:19:40;;;;;;;0.20;0.00;;;21.60;99.90;;;;;;26427693;22;21319;-79
2022/10/20 22:29:43;;;;;;;0.20;0.00;;;21.70;99.90;;;;;;26426364;22;20369;-76
2022/10/20 22:39:49;;;;;;;0.20;0.00;;;21.70;99.90;;;;;;26398403;22;20357;-78
2022/10/20 22:49:53;;;;;;;0.20;0.00;;;21.70;99.90;;;;;;26429876;22;20365;-78
2022/10/20 22:59:58;;;;;;;0.20;0.00;;;21.70;99.90;;;;;;26434870;22;20349;-76
2022/10/20 23:10:03;;;;;;;0.20;0.00;;;21.60;99.90;;;;;;26406524;22;20378;-77
2022/10/20 23:20:09;;;;;;;0.20;0.00;;;21.60;99.90;;;;;;26432849;22;20349;-75
2022/10/20 23:30:13;;;;;;;0.20;0.00;;;21.40;99.90;;;;;;26432840;22;20374;-79
2022/10/20 23:40:18;;;;;;;0.20;0.00;;;21.30;99.90;;;;;;26402009;22;20436;-74
2022/10/20 23:50:24;;;;;;;0.20;0.07;;;21.20;99.90;;;;;;26431778;22;20588;-76
